createdAt,value
2019-02-08T08:24:12.792Z,39.03
2019-02-08T08:27:08.825Z,44.50
2019-02-08T08:30:00.058Z,34.30
2019-02-08T08:32:43.903Z,31.60
2019-02-08T08:35:51.527Z,37.37
2019-02-08T08:39:03.898Z,34.30
2019-02-08T08:42:04.020Z,35.33
2019-02-08T08:45:26.839Z,37.97
2019-02-08T08:48:36.028Z,35.27
2019-02-08T08:55:25.562Z,41.07
2019-02-08T09:02:27.147Z,33.30
2019-02-08T09:05:35.876Z,31.87
2019-02-08T09:09:04.089Z,38.50
2019-02-08T09:12:07.908Z,36.17
2019-02-08T09:15:02.078Z,43.37
2019-02-08T09:18:13.685Z,34.97
2019-02-08T09:21:38.186Z,32.83
2019-02-08T09:24:25.100Z,37.47
2019-02-08T09:27:32.103Z,34.87
2019-02-08T09:30:36.010Z,38.03
2019-02-08T09:33:42.710Z,36.13
2019-02-08T09:36:38.755Z,29.60
2019-02-08T09:39:34.839Z,34.03
2019-02-08T09:42:29.302Z,35.63
2019-02-08T09:45:41.811Z,27.83
2019-02-08T09:48:56.848Z,31.97
2019-02-08T09:51:53.567Z,31.70
2019-02-08T09:55:13.024Z,33.80
2019-02-08T09:58:16.932Z,27.27
2019-02-08T10:01:28.634Z,24.47
2019-02-08T10:10:39.363Z,26.87
2019-02-08T10:13:39.656Z,24.27
2019-02-08T10:17:13.193Z,24.93
2019-02-08T10:20:19.747Z,26.73
2019-02-08T10:23:41.207Z,34.00
2019-02-08T10:26:55.340Z,24.80
2019-02-08T10:30:19.434Z,26.87
2019-02-08T10:33:28.529Z,29.13
2019-02-08T10:36:26.281Z,26.33
2019-02-08T10:39:37.181Z,28.27
2019-02-08T10:42:45.355Z,28.90
2019-02-08T10:46:00.889Z,31.97
2019-02-08T10:49:04.749Z,27.87
2019-02-08T10:52:13.421Z,27.67
2019-02-08T10:55:30.386Z,25.37
2019-02-08T10:58:35.807Z,28.33
2019-02-08T11:01:47.869Z,29.23
2019-02-08T11:05:12.515Z,24.87
2019-02-08T11:08:32.791Z,26.57
2019-02-08T11:11:49.936Z,26.30
2019-02-08T11:19:30.160Z,26.43
2019-02-08T11:22:04.382Z,27.17
2019-02-08T11:24:32.179Z,22.27
2019-02-08T11:27:02.786Z,21.87
2019-02-08T11:29:30.466Z,18.37
2019-02-08T11:31:58.025Z,21.63
2019-02-08T11:34:26.334Z,20.97
2019-02-08T11:36:54.131Z,20.83
2019-02-08T11:39:23.506Z,20.40
2019-02-08T11:41:51.058Z,19.57
2019-02-08T11:44:20.216Z,20.73
2019-02-08T11:46:47.962Z,21.90
2019-02-08T11:49:22.946Z,23.47
2019-02-08T11:51:50.862Z,25.27
2019-02-08T11:54:18.415Z,26.20
2019-02-08T11:56:46.465Z,22.53
2019-02-08T11:59:14.160Z,21.73
2019-02-08T12:01:43.787Z,20.10
2019-02-08T12:04:11.623Z,22.67
2019-02-08T12:06:39.550Z,19.13
2019-02-08T12:09:18.329Z,8.43
2019-02-08T12:11:46.195Z,18.40
2019-02-08T12:14:16.034Z,21.33
2019-02-08T12:16:44.353Z,21.20
2019-02-08T12:19:12.514Z,18.70
2019-02-08T12:21:40.252Z,22.17
2019-02-08T12:24:09.293Z,20.37
2019-02-08T12:26:38.114Z,18.20
2019-02-08T12:29:07.045Z,20.00
2019-02-08T12:31:35.114Z,23.73
2019-02-08T12:34:03.044Z,14.53
2019-02-08T12:36:30.898Z,13.00
2019-02-08T12:38:59.052Z,13.57
2019-02-08T12:41:27.371Z,15.80
2019-02-08T12:43:55.328Z,11.63
2019-02-08T12:46:23.318Z,12.50
2019-02-08T12:48:51.688Z,12.20
2019-02-08T12:51:19.864Z,12.80
2019-02-08T12:53:48.015Z,14.77
2019-02-08T12:56:16.314Z,12.33
2019-02-08T12:58:44.463Z,16.40
2019-02-08T13:01:12.560Z,11.27
2019-02-08T13:03:40.583Z,10.57
2019-02-08T13:06:08.896Z,12.87
2019-02-08T13:08:37.473Z,12.93
2019-02-08T13:11:05.447Z,14.00
2019-02-08T13:13:33.954Z,12.17
2019-02-08T13:16:01.807Z,10.03
2019-02-08T13:18:32.278Z,11.53
2019-02-08T13:21:00.658Z,12.93
2019-02-08T13:23:31.460Z,13.20
2019-02-08T13:26:00.294Z,14.37
2019-02-08T13:28:29.233Z,15.60
2019-02-08T13:30:57.788Z,13.03
2019-02-08T13:33:25.959Z,16.20
2019-02-08T13:35:54.452Z,14.53
2019-02-08T13:38:23.134Z,17.30
2019-02-08T13:40:50.736Z,14.03
2019-02-08T13:43:18.977Z,12.23
2019-02-08T13:45:50.578Z,11.13
2019-02-08T13:48:19.348Z,13.03
2019-02-08T13:50:47.876Z,11.63
2019-02-08T13:53:15.446Z,14.83
2019-02-08T13:55:45.475Z,10.37
2019-02-08T13:58:13.956Z,13.23
2019-02-08T14:00:43.848Z,12.93
2019-02-08T14:03:12.424Z,12.47
2019-02-08T14:05:41.158Z,12.10
2019-02-08T14:08:09.770Z,10.53
2019-02-08T14:10:38.640Z,11.10
2019-02-08T14:13:07.136Z,12.63
2019-02-08T14:15:36.047Z,12.90
2019-02-08T14:18:05.002Z,15.33
2019-02-08T14:20:33.792Z,15.30
2019-02-08T14:23:01.488Z,12.00
2019-02-08T14:25:29.801Z,10.27
2019-02-08T14:27:58.788Z,12.03
2019-02-08T14:30:31.708Z,13.73
2019-02-08T14:33:00.042Z,12.93
2019-02-08T14:35:29.307Z,12.60
2019-02-08T14:37:58.509Z,14.77
2019-02-08T14:40:26.248Z,13.77
2019-02-08T14:42:55.146Z,12.37
2019-02-08T14:45:23.267Z,13.00
2019-02-08T14:47:51.563Z,13.17
2019-02-08T14:50:21.510Z,12.77
2019-02-08T14:52:50.114Z,15.13
2019-02-08T14:55:18.447Z,11.93
2019-02-08T14:57:46.233Z,11.40
2019-02-08T15:00:17.472Z,12.87
2019-02-08T15:02:45.186Z,11.37
2019-02-08T15:05:14.359Z,10.97
2019-02-08T15:07:42.311Z,9.80
2019-02-08T15:10:17.777Z,11.17
2019-02-08T15:12:45.931Z,12.67
2019-02-08T15:15:14.253Z,13.57
2019-02-08T15:17:44.108Z,14.87
2019-02-08T15:20:15.944Z,18.57
2019-02-08T15:22:44.166Z,16.47
2019-02-08T15:25:12.452Z,14.00
2019-02-08T15:27:45.595Z,15.73
2019-02-08T15:30:23.136Z,15.63
2019-02-08T15:38:56.907Z,18.73
2019-02-08T15:41:25.078Z,17.13
2019-02-08T15:43:53.475Z,20.40
2019-02-08T15:46:29.772Z,17.50
2019-02-08T15:49:00.621Z,20.27
2019-02-08T15:51:29.631Z,22.50
2019-02-08T15:54:00.884Z,19.27
2019-02-08T15:56:39.674Z,22.47
2019-02-08T15:59:07.660Z,23.03
2019-02-08T16:01:35.328Z,23.93
2019-02-08T16:04:03.210Z,25.10
2019-02-08T16:06:32.220Z,22.73
2019-02-08T16:08:59.863Z,25.23
2019-02-08T16:17:16.978Z,29.90
2019-02-08T16:19:46.240Z,27.53
2019-02-08T16:23:10.817Z,25.03
2019-02-08T16:28:59.286Z,26.60
2019-02-08T16:31:28.539Z,29.13
2019-02-08T16:33:56.695Z,25.53
2019-02-08T16:36:27.093Z,28.07
2019-02-08T16:38:57.412Z,24.53
2019-02-08T16:41:25.858Z,29.47
2019-02-08T16:43:56.721Z,27.97
2019-02-08T16:46:25.552Z,30.23
2019-02-08T16:48:55.514Z,32.90
2019-02-08T16:51:23.227Z,32.40
2019-02-08T16:53:53.841Z,30.80
2019-02-08T16:56:21.736Z,30.17
2019-02-08T16:58:49.314Z,31.53
2019-02-08T17:01:16.848Z,33.37
2019-02-08T17:03:44.428Z,31.70
2019-02-08T17:06:12.187Z,32.87
2019-02-08T17:08:39.713Z,35.60
2019-02-08T17:11:07.593Z,35.30
2019-02-08T17:13:36.256Z,38.17
2019-02-08T17:16:05.195Z,30.80
2019-02-08T17:18:32.767Z,36.33
2019-02-08T17:21:00.886Z,31.90
2019-02-08T17:23:29.227Z,30.50
2019-02-08T17:25:58.039Z,36.60
2019-02-08T17:28:27.279Z,46.03
2019-02-08T17:30:57.587Z,37.20
2019-02-08T17:33:25.651Z,35.40
2019-02-08T17:35:54.293Z,33.03
2019-02-08T17:38:22.558Z,38.37
2019-02-08T17:40:51.818Z,31.07
2019-02-08T17:43:19.555Z,30.87
2019-02-08T22:32:15.275Z,47.63
2019-02-08T22:34:42.907Z,56.43
2019-02-08T22:37:10.623Z,52.73
2019-02-08T22:39:38.559Z,48.83
2019-02-08T22:42:06.373Z,63.03
2019-02-08T22:44:33.965Z,49.93
2019-02-08T22:47:01.871Z,51.80
2019-02-08T22:49:29.602Z,52.30
2019-02-08T22:52:00.860Z,54.97
2019-02-08T22:54:28.624Z,49.67
2019-02-08T22:56:56.969Z,56.40
2019-02-08T22:59:24.823Z,55.90
2019-02-08T23:01:53.333Z,53.07
2019-02-08T23:04:20.841Z,51.00
2019-02-08T23:06:48.492Z,52.80
2019-02-08T23:09:19.793Z,53.30
2019-02-08T23:11:47.375Z,54.13
2019-02-08T23:14:15.023Z,52.60
2019-02-08T23:16:42.694Z,51.27
2019-02-08T23:19:10.302Z,58.03
2019-02-08T23:21:37.971Z,56.80
2019-02-08T23:24:05.593Z,73.67
2019-02-08T23:26:33.217Z,66.17
2019-02-08T23:29:00.891Z,64.87
2019-02-08T23:31:28.464Z,58.00
2019-02-08T23:33:56.026Z,60.17
2019-02-08T23:36:23.886Z,62.03
2019-02-08T23:38:51.588Z,53.17
2019-02-08T23:41:19.363Z,51.00
2019-02-08T23:43:47.401Z,57.20
2019-02-08T23:46:15.063Z,54.37
2019-02-08T23:48:42.715Z,55.03
2019-02-08T23:51:10.316Z,53.00
2019-02-08T23:53:38.050Z,50.77
2019-02-08T23:56:06.081Z,49.77
2019-02-08T23:58:33.971Z,46.27
